Warning: Javascript must be enabled to use all the features on this page!


Page Loading - Please Wait...

Click to hideNews Bulletins

Peak Streamflow for the Nation

USGS 07337000 Red River at Index, AR

Miller County, Arkansas
Hydrologic Unit Code 11140106
Latitude  33°33'07", Longitude  94°02'28" NAD83
Drainage area 48,000  square miles
Contributing drainage area 42,100  square miles
Gage datum 246.87 feet above NGVD29
Output formats
Table
Graph
Tab-separated file
peakfq (watstore) format
Reselect output format
Water
Year
Date Gage
Height
(feet)
Stream-
flow
(cfs)
1918 1918-04-19 24.50  
1919 1918-10-31 22.00  
1920 1920-05-21 27.60  
1921 1921-06-27 23.50  
1922 1922-05-15 26.30  
1923 1923-09-24 23.30  
1924 1923-12-18 27.00  
1925 1925-05-01 20.50  
1926 1926-08-21 23.50  
1927 1927-04-23 30.80  
1928 1928-05-23 25.00  
1929 1929-05-21 27.20  
1930 1930-05-21 27.20  
1931 1930-12-09 20.20  
1932 1932-02-21 27.40  
1933 1933-05-29 24.70  
1934 1934-03-04 20.50  
1935 1935-05-25 31.10  
1936 1935-12-09 22.10  
1937 1936-10-01 24.00 88,100
1938 1938-02-23 34.25 297,000
1939 1939-04-19 21.20 70,600
1940 1940-05-26 19.70 70,100
1941 1941-06-16 27.83 145,000
1942 1942-05-01 29.85 178,000
1943 1943-05-16   112,0005
1944 1944-05-04 21.88 87,8006
1945 1945-04-01 28.05 152,0006
1946 1945-10-11 20.80 76,4006
1947 1946-11-09 23.74 110,0006
1948 1948-05-13 21.40 84,0006
1949 1949-01-29 24.56 112,0006
1950 1950-02-15 23.48 108,0006
1951 1951-06-18 23.64 102,0006
1952 1952-04-25 24.50 112,0006
1953 1953-05-02 22.48 91,7006
1954 1954-05-13 20.50 76,2006
1955 1955-03-23 17.88 56,5006
1956 1956-02-20   41,8006
1957 1957-06-08 28.56 154,0006
1958 1958-05-06 25.32 145,0006
1959 1959-07-29 17.00 48,4006
1960 1959-10-16 18.43 61,0006
1961 1960-12-13 17.69 68,4006
1962 1961-11-26   53,8001,6
1963 1962-11-29   55,5006
1964 1964-04-27 15.18 37,4006
1965 1965-02-12 19.25 69,0006
1966 1966-05-03 23.96 110,0006
1967 1967-06-03   53,6006
1968 1968-05-19   125,0006
1969 1969-05-10 21.39 101,0006
1970 1970-04-28 18.48 64,1006
1971 1970-10-30 12.99 27,8006
1972 1971-12-14 25.62 142,0006
1973 1973-04-27 22.01 97,9006
1974 1973-11-29 18.65 68,2006
1975 1974-11-12 19.64 71,2006
1976 1976-04-24 14.96 40,8006
1977 1977-03-30 20.73 106,0006
1978 1978-06-12 12.77 29,7006
1979 1979-05-24 16.432 65,4006
1980 1980-06-07 13.93 38,0006
1981 1981-06-08 17.33 62,5006
1982 1982-05-16 22.20 115,0006
1983 1982-12-04 16.33 54,0006
1984 1984-05-05 14.34 40,1006
1985 1985-04-07 17.19 58,3006
1986 1986-06-07 15.70 49,2006
1987 1987-03-19 17.60 69,7006
1988 1987-12-28 19.75 87,7006
1989 1989-05-20 18.62 70,4006
1990 1990-05-10 32.30 270,0006
1991 1991-06-17 13.58 51,4006
1992 1991-12-23 16.64 76,1006
1993 1993-05-12 19.15 109,0006
1994 1993-12-05 15.21 73,2006
1995 1995-05-10 17.11 93,5006
1996 1996-09-29 11.84 44,0006
1997 1996-11-27 18.11 93,5006
1998 1998-01-08 16.392 89,1006
1999 1999-05-14 10.31 41,0006
2000 2000-06-24 7.30 21,1006
2001 2001-02-19 18.55 102,0006
2002 2002-03-23 17.59 96,8006
2003 2003-01-03 8.35 28,5006
2004 2004-06-26 8.19 25,5006
2005 2005-01-06 14.65 67,7006
2006 2006-05-13 7.07 20,4006
2007 2007-07-16 18.51 102,0006
2008 2008-03-22 18.02 96,9006
2009 2009-05-14 19.862,5 95,4002,6
2010 2009-10-13 14.72 62,2006
2011 2011-05-06 11.01 43,1006
2012 2012-03-24 13.62 57,3006
2013 2013-05-27 9.07 33,6006
2014 2014-05-14 5.56 17,3006
2015 2015-06-03 31.41 256,0006
2016 2015-12-31 23.54 128,0006
2017 2017-07-07 12.95 53,8006
2018 2018-02-25 18.03 98,2006
2019 2019-05-20 15.36 80,5006
2020 2020-05-28 16.34 86,9006
?
  Peak Gage-Height Qualification Codes.
?
  Peak Streamflow Qualification Codes.